Time;durP1;ratioP1;P1;durP2;ratioP2;P2;SDS_P1;SDS_P2;PMS_P1;PMS_P2;Temp;Humidity;BMP_temperature;BMP_pressure;BME280_temperature;BME280_humidity;BME280_pressure;Samples;Min_cycle;Max_cycle;Signal;HPM_P1;HPM_P2
2024/01/15 00:02:18;;;;;;;2.65;0.82;;;2.50;99.90;;;;;;5032207;28;20485;-72
2024/01/15 00:04:44;;;;;;;0.75;0.32;;;2.50;99.90;;;;;;5032094;28;20044;-73
2024/01/15 00:07:10;;;;;;;0.93;0.30;;;2.40;99.90;;;;;;5032860;28;20489;-73
2024/01/15 00:09:36;;;;;;;0.20;0.20;;;2.40;99.90;;;;;;5035195;28;20044;-72
2024/01/15 00:12:02;;;;;;;3.83;1.55;;;2.40;99.90;;;;;;5037234;28;20036;-71
2024/01/15 00:14:28;;;;;;;3.28;0.60;;;2.40;99.90;;;;;;5035642;28;20044;-73
2024/01/15 00:16:55;;;;;;;0.70;0.70;;;2.40;99.90;;;;;;5036493;28;20049;-72
2024/01/15 00:19:24;;;;;;;3.03;0.70;;;2.40;99.90;;;;;;5036603;28;20060;-71
2024/01/15 00:21:50;;;;;;;2.50;0.43;;;2.40;99.90;;;;;;5036220;28;20812;-70
2024/01/15 00:24:16;;;;;;;6.18;0.93;;;2.40;99.90;;;;;;5036730;28;20657;-73
2024/01/15 00:26:42;;;;;;;0.73;0.40;;;2.40;99.90;;;;;;5019247;28;20037;-71
2024/01/15 00:29:08;;;;;;;6.20;1.23;;;2.50;99.90;;;;;;5034794;28;20424;-72
2024/01/15 00:31:34;;;;;;;2.20;0.73;;;2.50;99.90;;;;;;5036288;28;20029;-72
2024/01/15 00:34:00;;;;;;;0.85;0.40;;;2.50;99.90;;;;;;5032458;28;20048;-71
2024/01/15 00:36:27;;;;;;;2.75;0.75;;;2.50;99.90;;;;;;5019753;28;20106;-72
2024/01/15 00:38:53;;;;;;;3.55;0.45;;;2.40;99.90;;;;;;5019832;28;20086;-73
2024/01/15 00:41:19;;;;;;;1.25;0.40;;;2.40;99.90;;;;;;5015414;28;20041;-71
2024/01/15 00:43:46;;;;;;;5.00;0.63;;;2.40;99.90;;;;;;5035318;28;20063;-73
2024/01/15 00:46:12;;;;;;;0.17;0.15;;;2.40;99.90;;;;;;5035140;28;20041;-72
2024/01/15 00:48:38;;;;;;;0.80;0.20;;;2.50;99.90;;;;;;5035661;28;20126;-72
2024/01/15 00:51:07;;;;;;;10.15;0.90;;;2.50;99.90;;;;;;5036225;28;20371;-72
2024/01/15 00:53:33;;;;;;;12.53;1.27;;;2.50;99.90;;;;;;5019995;28;20416;-72
2024/01/15 00:55:59;;;;;;;6.13;1.25;;;2.50;99.90;;;;;;5019177;28;20279;-72
2024/01/15 00:58:26;;;;;;;5.00;1.33;;;2.60;99.90;;;;;;5035111;28;20037;-71
2024/01/15 01:00:52;;;;;;;1.20;0.38;;;2.60;99.90;;;;;;5035925;28;20076;-72
2024/01/15 01:03:17;;;;;;;2.90;0.60;;;2.60;99.90;;;;;;5038309;28;20072;-72
2024/01/15 01:05:44;;;;;;;1.30;0.68;;;2.60;99.90;;;;;;5035575;28;20041;-73
2024/01/15 01:08:10;;;;;;;1.33;1.00;;;2.70;99.90;;;;;;5018888;28;20036;-72
2024/01/15 01:10:36;;;;;;;7.78;0.75;;;2.70;99.90;;;;;;5035626;28;20033;-70
2024/01/15 01:13:02;;;;;;;0.85;0.47;;;2.70;99.90;;;;;;5034807;28;20090;-71
2024/01/15 01:15:28;;;;;;;2.35;0.60;;;2.70;99.90;;;;;;5035314;28;20060;-70
2024/01/15 01:17:54;;;;;;;4.45;0.40;;;2.70;99.90;;;;;;5035329;28;20049;-69
2024/01/15 01:20:20;;;;;;;1.23;0.77;;;2.70;99.90;;;;;;5034240;28;20048;-70
2024/01/15 01:22:46;;;;;;;0.68;0.40;;;2.60;99.90;;;;;;5035212;28;20041;-69
2024/01/15 01:25:11;;;;;;;1.08;0.20;;;2.60;99.90;;;;;;5035308;28;20120;-70
2024/01/15 01:27:37;;;;;;;0.95;0.20;;;2.50;99.90;;;;;;5033986;28;20029;-70
2024/01/15 01:30:12;;;;;;;2.75;0.55;;;2.50;99.90;;;;;;5030658;28;20048;-69
2024/01/15 01:32:38;;;;;;;1.95;0.22;;;2.50;99.90;;;;;;5015312;28;20033;-72
2024/01/15 01:35:04;;;;;;;0.10;0.10;;;2.50;99.90;;;;;;5035305;28;20033;-71
2024/01/15 01:37:30;;;;;;;1.08;0.20;;;2.50;99.90;;;;;;5034857;28;20048;-69
2024/01/15 01:39:56;;;;;;;0.45;0.43;;;2.50;99.90;;;;;;5018444;28;20045;-72
2024/01/15 01:42:21;;;;;;;0.10;0.10;;;2.40;99.90;;;;;;5034825;28;20124;-72
2024/01/15 01:44:47;;;;;;;0.60;0.40;;;2.40;99.90;;;;;;5018033;28;20067;-72
2024/01/15 01:47:14;;;;;;;1.08;0.43;;;2.30;99.90;;;;;;5035608;28;20040;-72
2024/01/15 01:49:41;;;;;;;4.20;0.98;;;2.30;99.90;;;;;;5035039;28;20041;-71
2024/01/15 01:52:08;;;;;;;0.20;0.20;;;2.30;99.90;;;;;;5035226;28;20106;-72
2024/01/15 01:54:35;;;;;;;0.10;0.10;;;2.30;99.90;;;;;;5031041;28;20049;-71
2024/01/15 01:57:03;;;;;;;0.10;0.10;;;2.20;99.90;;;;;;5034715;28;20649;-71
2024/01/15 01:59:30;;;;;;;6.72;0.47;;;2.20;99.90;;;;;;5035894;28;20114;-74
2024/01/15 02:01:56;;;;;;;4.82;0.50;;;2.10;99.90;;;;;;5038727;28;20056;-75
2024/01/15 02:04:24;;;;;;;2.05;0.40;;;2.10;99.90;;;;;;5034427;28;20058;-75
2024/01/15 02:06:51;;;;;;;4.65;1.00;;;1.90;99.90;;;;;;5020055;28;20101;-75
2024/01/15 02:09:20;;;;;;;0.38;0.22;;;1.90;99.90;;;;;;5041658;28;20056;-75
2024/01/15 02:11:49;;;;;;;1.25;0.90;;;1.80;99.90;;;;;;5038698;28;20123;-75
2024/01/15 02:14:15;;;;;;;0.43;0.30;;;1.80;99.90;;;;;;5039192;28;20040;-76
2024/01/15 02:16:44;;;;;;;2.13;1.60;;;1.80;99.90;;;;;;5042556;28;20087;-75
2024/01/15 02:19:17;;;;;;;1.98;0.65;;;1.90;99.90;;;;;;5034345;28;20044;-75
2024/01/15 02:21:43;;;;;;;4.57;0.43;;;1.90;99.90;;;;;;5043444;28;20389;-76
2024/01/15 02:24:09;;;;;;;8.45;0.82;;;1.90;99.90;;;;;;5034349;28;20068;-76
2024/01/15 02:26:36;;;;;;;0.28;0.28;;;1.90;99.90;;;;;;5033371;28;20102;-75
2024/01/15 02:29:03;;;;;;;0.20;0.20;;;1.90;99.90;;;;;;5023241;28;20036;-75
2024/01/15 02:31:28;;;;;;;3.22;0.20;;;1.90;99.90;;;;;;5038018;28;20543;-75
2024/01/15 02:33:54;;;;;;;0.40;0.40;;;1.90;99.90;;;;;;5037188;28;20041;-76
2024/01/15 02:36:20;;;;;;;0.28;0.10;;;1.90;99.90;;;;;;5035949;28;20501;-76
2024/01/15 02:38:46;;;;;;;3.92;0.40;;;1.80;99.90;;;;;;5040855;28;20741;-75
2024/01/15 02:41:14;;;;;;;4.88;1.45;;;1.80;99.90;;;;;;5017318;28;20116;-75
2024/01/15 02:43:41;;;;;;;0.30;0.30;;;1.80;99.90;;;;;;5034156;28;20045;-73
2024/01/15 02:46:10;;;;;;;0.45;0.40;;;1.90;99.90;;;;;;5034406;28;20037;-75
2024/01/15 02:48:35;;;;;;;9.80;0.68;;;2.00;99.90;;;;;;5030238;28;20429;-75
2024/01/15 02:51:02;;;;;;;4.75;0.88;;;2.10;99.90;;;;;;5037069;28;20036;-76
2024/01/15 02:53:27;;;;;;;1.52;0.70;;;2.10;99.90;;;;;;5035843;28;20386;-76
2024/01/15 02:55:53;;;;;;;0.40;0.40;;;2.20;99.90;;;;;;5021701;28;20044;-76
2024/01/15 02:58:19;;;;;;;3.03;0.68;;;2.20;99.90;;;;;;5038534;28;20509;-75
2024/01/15 03:00:46;;;;;;;4.38;1.00;;;2.20;99.90;;;;;;5034864;28;20127;-75
2024/01/15 03:03:12;;;;;;;7.57;1.10;;;2.10;99.90;;;;;;5041913;28;20362;-75
2024/01/15 03:05:38;;;;;;;0.70;0.40;;;2.10;99.90;;;;;;5038198;28;20040;-74
2024/01/15 03:08:04;;;;;;;0.38;0.32;;;2.00;99.90;;;;;;5017419;28;20159;-75
2024/01/15 03:10:30;;;;;;;1.27;1.10;;;2.10;99.90;;;;;;5033443;28;20155;-75
2024/01/15 03:12:57;;;;;;;3.65;0.40;;;2.10;99.90;;;;;;5017374;28;20041;-75
2024/01/15 03:15:22;;;;;;;3.03;0.40;;;2.10;99.90;;;;;;5037971;28;20455;-75
2024/01/15 03:17:48;;;;;;;0.93;0.65;;;2.20;99.90;;;;;;5033570;28;20053;-75
2024/01/15 03:20:14;;;;;;;1.25;0.88;;;2.20;99.90;;;;;;5033901;28;20041;-74
2024/01/15 03:22:40;;;;;;;1.25;0.52;;;2.30;99.90;;;;;;5037264;28;20418;-75
2024/01/15 03:25:06;;;;;;;6.82;0.68;;;2.40;99.90;;;;;;5037346;28;20041;-74
2024/01/15 03:27:32;;;;;;;0.65;0.47;;;2.40;99.90;;;;;;5032190;28;20052;-75
2024/01/15 03:29:57;;;;;;;7.82;1.00;;;2.50;99.90;;;;;;5037812;28;20040;-75
2024/01/15 03:32:23;;;;;;;5.30;0.93;;;2.50;99.90;;;;;;5033509;28;20052;-75
2024/01/15 03:34:49;;;;;;;2.75;0.82;;;2.60;99.90;;;;;;5033045;28;20540;-74
2024/01/15 03:37:15;;;;;;;1.27;0.43;;;2.60;99.90;;;;;;5033627;28;20037;-74
2024/01/15 03:39:41;;;;;;;5.82;0.50;;;2.60;99.90;;;;;;5033187;28;20481;-74
2024/01/15 03:42:07;;;;;;;2.22;0.38;;;2.50;99.90;;;;;;5033410;28;20045;-75
2024/01/15 03:44:32;;;;;;;0.35;0.35;;;2.50;99.90;;;;;;5032549;28;20057;-74
2024/01/15 03:46:58;;;;;;;3.58;1.23;;;2.40;99.90;;;;;;5032979;28;20045;-73
2024/01/15 03:49:24;;;;;;;2.22;0.75;;;2.30;99.90;;;;;;5016816;28;20125;-74
2024/01/15 03:51:50;;;;;;;2.75;0.30;;;2.30;99.90;;;;;;5030390;28;20124;-73
2024/01/15 03:54:16;;;;;;;1.00;0.38;;;2.30;99.90;;;;;;5033459;28;20041;-74
2024/01/15 03:56:41;;;;;;;2.70;0.90;;;2.30;99.90;;;;;;5036442;28;20474;-74
2024/01/15 03:59:07;;;;;;;3.78;0.98;;;2.30;99.90;;;;;;5016794;28;20080;-73
2024/01/15 04:01:33;;;;;;;1.83;1.17;;;2.40;99.90;;;;;;5032485;28;20053;-75
2024/01/15 04:03:59;;;;;;;2.08;1.42;;;2.40;99.90;;;;;;5032925;28;20045;-74
2024/01/15 04:06:24;;;;;;;2.47;0.93;;;2.40;99.90;;;;;;5032029;28;20075;-73
2024/01/15 04:08:50;;;;;;;4.68;0.55;;;2.30;99.90;;;;;;5032700;28;20040;-73
2024/01/15 04:11:16;;;;;;;2.22;0.95;;;2.30;99.90;;;;;;5032837;28;20086;-72
2024/01/15 04:13:42;;;;;;;4.85;1.23;;;2.30;99.90;;;;;;5032938;28;20033;-74
2024/01/15 04:16:07;;;;;;;2.38;0.50;;;2.30;99.90;;;;;;5032834;28;20041;-76
2024/01/15 04:18:33;;;;;;;3.00;0.57;;;2.30;99.90;;;;;;5032244;28;20060;-74
2024/01/15 04:20:59;;;;;;;7.20;0.90;;;2.40;99.90;;;;;;5032880;28;20116;-76
2024/01/15 04:23:25;;;;;;;0.50;0.47;;;2.40;99.90;;;;;;5033360;28;20060;-76
2024/01/15 04:25:50;;;;;;;4.13;0.93;;;2.40;99.90;;;;;;5032776;28;20492;-76
2024/01/15 04:28:16;;;;;;;0.93;0.93;;;2.40;99.90;;;;;;5037146;28;20036;-75
2024/01/15 04:30:42;;;;;;;5.68;0.70;;;2.30;99.90;;;;;;5016597;28;20040;-75
2024/01/15 04:33:08;;;;;;;6.15;0.75;;;2.30;99.90;;;;;;5020672;28;20033;-76
2024/01/15 04:35:34;;;;;;;1.73;0.30;;;2.30;99.90;;;;;;5037073;28;20051;-76
2024/01/15 04:38:12;;;;;;;1.35;0.43;;;2.30;99.90;;;;;;5032723;28;20500;-72
2024/01/15 04:40:38;;;;;;;0.32;0.32;;;2.30;99.90;;;;;;5036146;28;20507;-76
2024/01/15 04:43:04;;;;;;;4.38;1.30;;;2.30;99.90;;;;;;5040124;28;20037;-76
2024/01/15 04:45:30;;;;;;;0.10;0.10;;;2.30;99.90;;;;;;5038034;28;20375;-76
2024/01/15 04:47:57;;;;;;;1.55;1.02;;;2.30;99.90;;;;;;5040372;28;20037;-75
2024/01/15 04:50:22;;;;;;;0.80;0.60;;;2.20;99.90;;;;;;5032120;28;20457;-75
2024/01/15 04:52:48;;;;;;;4.40;0.50;;;2.20;99.90;;;;;;5016119;28;20064;-75
2024/01/15 04:55:15;;;;;;;2.60;1.10;;;2.10;99.90;;;;;;5016691;28;20124;-75
2024/01/15 04:57:41;;;;;;;3.90;0.35;;;2.00;99.90;;;;;;5035868;28;20558;-75
2024/01/15 05:00:07;;;;;;;5.43;0.90;;;1.90;99.90;;;;;;5035709;28;20045;-75
2024/01/15 05:02:33;;;;;;;2.20;0.60;;;1.90;99.90;;;;;;5032256;28;20045;-75
2024/01/15 05:04:59;;;;;;;2.38;0.40;;;1.90;99.90;;;;;;5035079;28;20496;-74
2024/01/15 05:07:24;;;;;;;0.70;0.30;;;1.90;99.90;;;;;;5019856;28;20040;-74
2024/01/15 05:09:50;;;;;;;5.13;1.02;;;1.90;99.90;;;;;;5036963;28;20032;-75
2024/01/15 05:12:16;;;;;;;0.68;0.63;;;1.90;99.90;;;;;;5039302;28;20052;-75
2024/01/15 05:14:42;;;;;;;0.63;0.55;;;2.00;99.90;;;;;;5040806;28;20037;-75
2024/01/15 05:17:07;;;;;;;1.73;1.10;;;1.90;99.90;;;;;;5035449;28;20608;-75
2024/01/15 05:19:34;;;;;;;3.03;1.00;;;1.90;99.90;;;;;;5035922;28;20045;-76
2024/01/15 05:22:01;;;;;;;2.75;0.40;;;1.90;99.90;;;;;;5033509;28;20057;-75
2024/01/15 05:24:27;;;;;;;0.70;0.52;;;1.80;99.90;;;;;;5044002;28;20045;-75
2024/01/15 05:26:52;;;;;;;5.65;0.80;;;1.80;99.90;;;;;;5043691;28;20040;-75
2024/01/15 05:29:18;;;;;;;0.65;0.65;;;1.70;99.90;;;;;;5040359;28;20166;-75
2024/01/15 05:31:44;;;;;;;2.92;0.68;;;1.70;99.90;;;;;;5040486;28;20045;-75
2024/01/15 05:34:10;;;;;;;6.25;1.25;;;1.60;99.90;;;;;;5039979;28;20528;-76
2024/01/15 05:36:36;;;;;;;2.28;0.98;;;1.60;99.90;;;;;;5036051;28;20039;-75
2024/01/15 05:39:02;;;;;;;0.57;0.38;;;1.60;99.90;;;;;;5035216;28;20041;-75
2024/01/15 05:41:28;;;;;;;0.20;0.20;;;1.50;99.90;;;;;;5037409;28;20460;-75
2024/01/15 05:43:54;;;;;;;3.22;0.63;;;1.40;99.90;;;;;;5037922;28;20116;-75
2024/01/15 05:46:20;;;;;;;0.43;0.40;;;1.40;99.90;;;;;;5039153;28;20481;-75
2024/01/15 05:48:45;;;;;;;3.10;0.50;;;1.50;99.90;;;;;;5023100;28;20091;-75
2024/01/15 05:51:12;;;;;;;1.88;0.45;;;1.60;99.90;;;;;;5031749;28;20391;-74
2024/01/15 05:53:40;;;;;;;1.27;0.40;;;1.60;99.90;;;;;;5034617;28;20136;-73
2024/01/15 05:56:06;;;;;;;1.38;0.28;;;1.70;99.90;;;;;;5038917;28;20123;-74
2024/01/15 05:58:31;;;;;;;1.85;0.60;;;1.80;99.90;;;;;;5021407;28;20355;-75
2024/01/15 06:00:57;;;;;;;1.50;0.77;;;1.80;99.90;;;;;;5033897;28;20250;-74
2024/01/15 06:03:23;;;;;;;10.40;0.57;;;1.80;99.90;;;;;;5012811;28;20685;-75
2024/01/15 06:05:49;;;;;;;0.82;0.40;;;1.80;99.90;;;;;;5031204;28;20516;-75
2024/01/15 06:08:15;;;;;;;1.20;1.08;;;1.80;99.90;;;;;;5035722;28;20060;-75
2024/01/15 06:10:40;;;;;;;2.85;0.40;;;1.80;99.90;;;;;;5038681;28;20049;-75
2024/01/15 06:13:06;;;;;;;0.45;0.45;;;1.80;99.90;;;;;;5037357;28;20044;-75
2024/01/15 06:15:32;;;;;;;5.97;0.57;;;1.70;99.90;;;;;;5035201;28;20488;-75
2024/01/15 06:17:58;;;;;;;0.32;0.32;;;1.60;99.90;;;;;;5042938;28;20084;-75
2024/01/15 06:20:23;;;;;;;2.08;0.88;;;1.60;99.90;;;;;;5039330;28;20124;-75
2024/01/15 06:22:49;;;;;;;5.70;0.90;;;1.50;99.90;;;;;;5039241;28;20049;-75
2024/01/15 06:25:15;;;;;;;3.80;0.90;;;1.50;99.90;;;;;;5042524;28;20040;-75
2024/01/15 06:27:41;;;;;;;0.40;0.40;;;1.50;99.90;;;;;;5021455;28;20033;-75
2024/01/15 06:30:07;;;;;;;6.18;0.30;;;1.40;99.90;;;;;;5034644;28;20039;-75
2024/01/15 06:32:33;;;;;;;2.15;0.43;;;1.40;99.90;;;;;;5036693;28;20513;-76
2024/01/15 06:34:58;;;;;;;1.55;0.88;;;1.40;99.90;;;;;;5039006;28;20053;-75
2024/01/15 06:37:24;;;;;;;0.20;0.20;;;1.30;99.90;;;;;;5032903;28;20044;-75
2024/01/15 06:39:50;;;;;;;0.63;0.50;;;1.30;99.90;;;;;;5034639;28;20045;-73
2024/01/15 06:42:16;;;;;;;1.15;0.25;;;1.30;99.90;;;;;;5035171;28;20037;-75
2024/01/15 06:44:41;;;;;;;9.00;1.75;;;1.40;99.90;;;;;;5033997;28;20126;-75
2024/01/15 06:47:07;;;;;;;7.35;1.15;;;1.40;99.90;;;;;;5032992;28;20490;-75
2024/01/15 06:49:33;;;;;;;1.35;0.52;;;1.40;99.90;;;;;;5032626;28;20041;-75
2024/01/15 06:51:59;;;;;;;1.75;0.28;;;1.50;99.90;;;;;;5033915;28;20040;-75
2024/01/15 06:54:26;;;;;;;0.73;0.45;;;1.50;99.90;;;;;;5030968;28;20070;-74
2024/01/15 06:56:52;;;;;;;1.58;0.85;;;1.50;99.90;;;;;;5014673;28;20033;-75
2024/01/15 06:59:18;;;;;;;2.70;1.13;;;1.50;99.90;;;;;;5034169;28;20405;-75
2024/01/15 07:02:05;;;;;;;4.97;1.38;;;1.60;99.90;;;;;;5030456;28;20064;-75
2024/01/15 07:04:31;;;;;;;4.50;2.10;;;1.60;99.90;;;;;;5037218;28;20099;-75
2024/01/15 07:06:57;;;;;;;12.13;3.25;;;1.60;99.90;;;;;;5037756;28;20037;-76
2024/01/15 07:09:23;;;;;;;6.85;3.05;;;1.60;99.90;;;;;;5014684;28;20069;-75
2024/01/15 07:11:48;;;;;;;25.50;12.18;;;1.50;99.90;;;;;;5038053;28;20068;-75
2024/01/15 07:14:14;;;;;;;1.48;0.63;;;1.50;99.90;;;;;;5030600;28;20493;-75
2024/01/15 07:16:40;;;;;;;4.47;0.75;;;1.40;99.90;;;;;;5033214;28;20103;-75
2024/01/15 07:19:07;;;;;;;1.40;0.77;;;1.40;99.90;;;;;;5033454;28;20037;-74
2024/01/15 07:21:33;;;;;;;0.73;0.30;;;1.40;99.90;;;;;;5041297;28;20578;-74
2024/01/15 07:23:58;;;;;;;2.22;1.40;;;1.40;99.90;;;;;;5040556;28;20056;-76
2024/01/15 07:26:25;;;;;;;2.97;1.30;;;1.30;99.90;;;;;;5037706;28;20489;-76
2024/01/15 07:28:50;;;;;;;5.28;1.05;;;1.40;99.90;;;;;;5037831;28;20075;-76
2024/01/15 07:31:17;;;;;;;1.23;0.38;;;1.30;99.90;;;;;;5036423;28;20086;-76
2024/01/15 07:33:43;;;;;;;1.23;0.52;;;1.30;99.90;;;;;;5034117;28;20581;-76
2024/01/15 07:36:09;;;;;;;0.50;0.43;;;1.30;99.90;;;;;;5020586;28;20041;-77
2024/01/15 07:38:35;;;;;;;6.90;0.60;;;1.30;99.90;;;;;;5033817;28;20072;-76
2024/01/15 07:41:00;;;;;;;0.52;0.40;;;1.30;99.90;;;;;;5037695;28;20049;-76
2024/01/15 07:43:27;;;;;;;1.50;0.50;;;1.30;99.90;;;;;;5036358;28;20053;-76
2024/01/15 07:45:53;;;;;;;15.20;1.88;;;1.30;99.90;;;;;;5034398;28;20056;-77
2024/01/15 07:48:20;;;;;;;4.43;0.70;;;1.30;99.90;;;;;;5013938;28;20050;-77
2024/01/15 07:50:46;;;;;;;0.30;0.30;;;1.30;99.90;;;;;;5030836;28;20038;-77
2024/01/15 07:53:11;;;;;;;3.42;0.57;;;1.30;99.90;;;;;;5040698;28;20048;-77
2024/01/15 07:55:37;;;;;;;2.30;0.88;;;1.30;99.90;;;;;;5035904;28;20049;-77
2024/01/15 07:58:03;;;;;;;1.92;1.20;;;1.30;99.90;;;;;;5031864;28;20037;-77
2024/01/15 08:00:29;;;;;;;5.35;0.38;;;1.30;99.90;;;;;;5038429;28;20048;-77
2024/01/15 08:02:54;;;;;;;10.35;1.02;;;1.30;99.90;;;;;;5040559;28;20033;-77
2024/01/15 08:05:20;;;;;;;2.13;1.27;;;1.40;99.90;;;;;;5030220;28;20049;-76
2024/01/15 08:07:47;;;;;;;10.32;1.38;;;1.40;99.90;;;;;;5030329;28;20570;-77
2024/01/15 08:10:13;;;;;;;1.27;0.40;;;1.50;99.90;;;;;;5034479;28;20455;-77
2024/01/15 08:12:39;;;;;;;0.88;0.55;;;1.50;99.90;;;;;;5012821;28;20038;-76
2024/01/15 08:15:05;;;;;;;0.77;0.70;;;1.50;99.90;;;;;;5029151;28;20041;-76
2024/01/15 08:17:32;;;;;;;13.02;4.20;;;1.50;99.90;;;;;;5018225;28;20505;-78
2024/01/15 08:19:59;;;;;;;9.95;3.75;;;1.60;99.90;;;;;;5037309;28;20052;-76
2024/01/15 08:22:25;;;;;;;1.70;1.10;;;1.60;99.90;;;;;;5017270;28;20036;-76
2024/01/15 08:24:51;;;;;;;4.13;1.77;;;1.60;99.90;;;;;;5033990;28;20386;-76
2024/01/15 08:27:17;;;;;;;1.73;1.10;;;1.60;99.90;;;;;;5017826;28;20037;-76
2024/01/15 08:29:44;;;;;;;6.80;1.58;;;1.70;99.90;;;;;;5038230;28;20091;-76
2024/01/15 08:32:13;;;;;;;14.48;1.15;;;1.60;99.90;;;;;;5041674;28;20607;-76
2024/01/15 08:34:40;;;;;;;10.10;1.20;;;1.60;99.90;;;;;;5045384;28;20063;-75
2024/01/15 08:37:05;;;;;;;6.45;1.52;;;1.60;99.90;;;;;;5045635;28;20040;-75
2024/01/15 08:39:31;;;;;;;7.45;1.50;;;1.60;99.90;;;;;;5035491;28;20684;-75
2024/01/15 08:41:57;;;;;;;1.75;0.82;;;1.60;99.90;;;;;;5034657;28;20099;-74
2024/01/15 08:44:23;;;;;;;8.95;1.27;;;1.50;99.90;;;;;;5036353;28;20123;-74
2024/01/15 08:46:48;;;;;;;7.28;1.17;;;1.50;99.90;;;;;;5031685;28;20048;-73
2024/01/15 08:49:14;;;;;;;4.25;0.98;;;1.40;99.90;;;;;;5036001;28;20025;-75
2024/01/15 08:51:40;;;;;;;1.58;1.30;;;1.40;99.90;;;;;;5033858;28;20049;-75
2024/01/15 08:54:08;;;;;;;3.45;1.55;;;1.40;99.90;;;;;;5030875;28;20037;-75
2024/01/15 08:56:34;;;;;;;2.90;1.25;;;1.50;99.90;;;;;;5059447;23;20087;-81
2024/01/15 08:59:00;;;;;;;2.65;1.75;;;1.90;99.90;;;;;;5014678;28;20038;-83
2024/01/15 09:01:25;;;;;;;2.30;1.75;;;2.40;99.90;;;;;;5039837;28;20561;-82
2024/01/15 09:03:51;;;;;;;11.23;0.77;;;2.90;99.90;;;;;;5030817;28;20047;-81
2024/01/15 09:06:17;;;;;;;5.30;0.70;;;2.90;99.90;;;;;;5015401;28;20437;-81
2024/01/15 09:08:43;;;;;;;11.35;4.95;;;2.70;99.90;;;;;;5033416;28;20063;-81
2024/01/15 09:11:08;;;;;;;67.20;15.35;;;2.50;99.90;;;;;;5033245;28;22415;-80
2024/01/15 09:13:34;;;;;;;14.23;5.60;;;2.30;99.90;;;;;;5052762;28;20036;-80
2024/01/15 09:16:00;;;;;;;3.05;1.17;;;2.20;99.90;;;;;;5018779;28;20037;-80
2024/01/15 09:18:27;;;;;;;1.33;0.98;;;2.10;99.90;;;;;;5018284;28;20039;-80
2024/01/15 09:20:53;;;;;;;1.85;0.50;;;2.00;99.90;;;;;;5034732;28;20055;-80
2024/01/15 09:23:19;;;;;;;3.35;0.98;;;2.00;99.90;;;;;;5034447;28;20490;-80
2024/01/15 09:25:45;;;;;;;3.40;0.55;;;1.90;99.90;;;;;;5011349;28;20044;-80
2024/01/15 09:28:10;;;;;;;3.30;0.52;;;1.90;99.90;;;;;;5014955;28;20037;-80
2024/01/15 09:30:36;;;;;;;2.50;0.75;;;1.90;99.90;;;;;;5034677;28;20576;-80
2024/01/15 09:33:02;;;;;;;0.70;0.45;;;1.90;99.90;;;;;;5034730;28;20117;-80
2024/01/15 09:35:28;;;;;;;2.30;0.95;;;1.90;99.90;;;;;;5017226;28;20032;-80
2024/01/15 09:37:53;;;;;;;0.55;0.20;;;1.90;99.90;;;;;;5033783;28;20505;-80
2024/01/15 09:40:24;;;;;;;0.10;0.10;;;1.90;99.90;;;;;;5033310;28;20629;-80
2024/01/15 09:42:54;;;;;;;0.10;0.10;;;1.90;99.90;;;;;;5033191;28;20057;-80
2024/01/15 09:45:20;;;;;;;0.20;0.20;;;1.90;99.90;;;;;;5017601;28;20033;-80
2024/01/15 09:47:46;;;;;;;2.78;0.85;;;2.00;99.90;;;;;;5010542;28;20033;-80
2024/01/15 09:50:13;;;;;;;1.75;0.43;;;2.10;99.90;;;;;;5043700;28;20067;-80
2024/01/15 09:52:40;;;;;;;1.20;0.32;;;2.10;99.90;;;;;;5028486;28;20029;-81
2024/01/15 09:55:07;;;;;;;2.00;0.75;;;2.10;99.90;;;;;;5010772;28;20538;-81
2024/01/15 09:57:33;;;;;;;1.98;0.38;;;2.00;99.90;;;;;;5030487;28;20061;-80
2024/01/15 10:00:06;;;;;;;2.45;0.85;;;2.00;99.90;;;;;;5013302;28;20485;-80
2024/01/15 10:02:32;;;;;;;0.43;0.40;;;2.10;99.90;;;;;;5014003;28;20041;-80
2024/01/15 10:04:58;;;;;;;2.17;0.28;;;2.40;99.90;;;;;;5015420;28;20041;-80
2024/01/15 10:07:26;;;;;;;2.78;0.50;;;2.50;99.90;;;;;;5015421;28;20107;-80
2024/01/15 10:09:51;;;;;;;1.40;0.35;;;3.20;99.90;;;;;;4989453;28;20046;-80
2024/01/15 10:12:17;;;;;;;1.48;0.43;;;4.30;99.90;;;;;;5011916;28;20048;-80
2024/01/15 10:14:43;;;;;;;0.40;0.40;;;5.40;99.90;;;;;;5009445;28;20091;-80
2024/01/15 10:17:14;;;;;;;0.17;0.17;;;5.90;99.90;;;;;;4994933;28;20414;-81
2024/01/15 10:19:41;;;;;;;1.33;0.50;;;5.90;99.90;;;;;;5013272;28;20463;-80
2024/01/15 10:22:09;;;;;;;0.60;0.17;;;6.20;99.90;;;;;;5029926;28;20037;-81
2024/01/15 10:24:40;;;;;;;0.68;0.30;;;5.90;99.90;;;;;;5012657;28;20048;-81
2024/01/15 10:27:09;;;;;;;0.10;0.10;;;5.30;99.90;;;;;;5021841;28;20144;-81
2024/01/15 10:29:35;;;;;;;0.13;0.13;;;4.70;99.90;;;;;;5028408;28;20041;-81
2024/01/15 10:32:02;;;;;;;2.28;0.60;;;4.30;99.90;;;;;;5012255;28;20087;-81
2024/01/15 10:34:28;;;;;;;4.00;0.50;;;4.00;99.90;;;;;;5011312;28;20045;-81
2024/01/15 10:36:57;;;;;;;1.70;0.65;;;3.80;99.90;;;;;;5004931;28;20048;-80
2024/01/15 10:39:24;;;;;;;0.10;0.10;;;3.50;99.90;;;;;;5029817;28;20071;-80
2024/01/15 10:41:53;;;;;;;2.22;0.82;;;3.30;99.90;;;;;;5012206;28;20098;-80
2024/01/15 10:44:19;;;;;;;2.80;0.57;;;3.00;99.90;;;;;;5011004;28;20072;-80
2024/01/15 10:46:45;;;;;;;0.40;0.40;;;2.70;99.90;;;;;;5011409;28;20127;-80
2024/01/15 10:49:12;;;;;;;0.30;0.22;;;2.60;99.90;;;;;;5012041;28;20766;-80
2024/01/15 10:51:38;;;;;;;1.83;0.68;;;2.40;99.90;;;;;;5005967;28;20403;-80
2024/01/15 10:54:04;;;;;;;0.95;0.40;;;2.40;99.90;;;;;;4988645;28;20042;-80
2024/01/15 10:56:34;;;;;;;2.05;1.05;;;2.30;99.90;;;;;;5022853;28;20201;-80
2024/01/15 10:59:01;;;;;;;0.95;0.75;;;2.20;99.90;;;;;;5024680;28;20045;-80
2024/01/15 11:01:28;;;;;;;1.10;0.80;;;2.10;99.90;;;;;;5008645;28;20491;-81
2024/01/15 11:03:57;;;;;;;0.82;0.60;;;2.10;99.90;;;;;;5020107;28;20037;-81
2024/01/15 11:06:24;;;;;;;0.57;0.57;;;2.00;99.90;;;;;;5016262;28;20091;-80
2024/01/15 11:08:52;;;;;;;1.27;1.00;;;2.10;99.90;;;;;;5031093;28;20840;-81
2024/01/15 11:11:18;;;;;;;8.38;1.33;;;2.00;99.90;;;;;;5032134;28;20581;-81
2024/01/15 11:13:46;;;;;;;6.78;1.05;;;2.10;99.90;;;;;;5031501;28;20386;-81
2024/01/15 11:16:17;;;;;;;0.60;0.60;;;2.20;99.90;;;;;;5033041;28;20036;-81
2024/01/15 11:18:58;;;;;;;1.20;0.65;;;2.30;99.90;;;;;;5016537;28;20047;-81
2024/01/15 11:21:27;;;;;;;0.30;0.30;;;2.50;99.90;;;;;;5022509;28;20041;-81
2024/01/15 11:23:58;;;;;;;2.53;0.68;;;2.70;99.90;;;;;;5031060;28;20116;-81
2024/01/15 11:26:43;;;;;;;0.40;0.32;;;2.70;99.90;;;;;;5013543;28;20073;-81
2024/01/15 11:29:26;;;;;;;0.38;0.30;;;2.70;99.90;;;;;;5030134;28;20029;-81
2024/01/15 11:31:55;;;;;;;5.22;0.80;;;2.70;99.90;;;;;;5013560;28;20425;-80
2024/01/15 11:34:21;;;;;;;1.05;0.45;;;2.60;99.90;;;;;;5031932;28;20368;-80
2024/01/15 11:36:53;;;;;;;1.67;1.10;;;2.60;99.90;;;;;;5033327;28;20036;-80
2024/01/15 11:39:28;;;;;;;4.57;1.33;;;2.60;99.90;;;;;;5016783;28;20075;-80
2024/01/15 11:41:55;;;;;;;0.68;0.60;;;2.60;99.90;;;;;;5009738;28;20083;-80
2024/01/15 11:44:21;;;;;;;1.45;1.35;;;2.80;99.90;;;;;;5011409;28;20214;-80
2024/01/15 11:46:58;;;;;;;1.30;0.40;;;2.80;99.90;;;;;;5035590;28;20067;-80
2024/01/15 11:49:50;;;;;;;7.53;1.10;;;2.90;99.90;;;;;;5012558;28;20069;-80
2024/01/15 11:52:18;;;;;;;5.18;0.90;;;3.00;99.90;;;;;;5019733;28;20033;-80
2024/01/15 11:55:36;;;;;;;1.75;0.55;;;3.00;99.90;;;;;;5037859;28;20045;-81
2024/01/15 11:58:06;;;;;;;1.30;0.40;;;3.00;99.90;;;;;;4993275;28;20056;-81
2024/01/15 12:00:31;;;;;;;;;;;2.70;99.90;;;;;;5029199;28;22026;-81
2024/01/15 12:02:58;;;;;;;1.55;0.98;;;2.60;99.90;;;;;;5035635;28;19917;-80
2024/01/15 12:05:24;;;;;;;0.30;0.30;;;2.40;99.90;;;;;;5010523;28;20453;-80
2024/01/15 12:07:50;;;;;;;1.50;0.30;;;2.40;99.90;;;;;;5016221;28;20037;-80
2024/01/15 12:10:19;;;;;;;1.02;0.57;;;2.30;99.90;;;;;;5033539;28;20029;-80
2024/01/15 12:13:06;;;;;;;0.30;0.30;;;2.20;99.90;;;;;;5010494;28;20487;-82
2024/01/15 12:15:32;;;;;;;0.10;0.10;;;2.10;99.90;;;;;;5033780;28;20081;-81
2024/01/15 12:18:02;;;;;;;0.88;0.17;;;1.90;99.90;;;;;;5051816;28;20043;-81
2024/01/15 12:20:31;;;;;;;;;;;1.80;99.90;;;;;;5034145;28;20495;-80
2024/01/15 12:22:57;;;;;;;0.45;0.20;;;1.70;99.90;;;;;;5027385;28;20378;-80
2024/01/15 12:25:24;;;;;;;0.35;0.35;;;1.80;99.90;;;;;;5050242;28;20509;-80
2024/01/15 12:27:51;;;;;;;0.10;0.10;;;2.00;99.90;;;;;;5033997;28;20037;-80
2024/01/15 12:30:17;;;;;;;1.30;0.82;;;2.10;99.90;;;;;;5050113;28;20043;-80
2024/01/15 12:32:43;;;;;;;1.17;0.60;;;2.30;99.90;;;;;;5049428;28;20037;-80
2024/01/15 12:35:14;;;;;;;4.03;0.57;;;2.50;99.90;;;;;;5033171;28;20094;-80
2024/01/15 12:37:42;;;;;;;0.20;0.20;;;3.00;99.90;;;;;;5033116;28;20048;-80
2024/01/15 12:40:10;;;;;;;4.78;0.55;;;3.40;99.90;;;;;;5011516;28;20127;-81
2024/01/15 12:46:19;;;;;;;2.05;0.40;;;3.30;99.90;;;;;;5050909;28;20044;-80
2024/01/15 12:48:45;;;;;;;1.17;0.60;;;3.10;99.90;;;;;;5033985;28;20041;-80
2024/01/15 12:51:10;;;;;;;6.82;0.70;;;3.00;99.90;;;;;;5009253;28;20037;-80
2024/01/15 12:53:37;;;;;;;3.60;0.50;;;2.90;99.90;;;;;;5013601;28;20064;-80
2024/01/15 12:56:03;;;;;;;3.97;0.55;;;2.90;99.90;;;;;;5016798;28;20048;-80
2024/01/15 12:58:29;;;;;;;0.40;0.20;;;2.80;99.90;;;;;;5031743;28;20071;-80
2024/01/15 13:00:55;;;;;;;2.20;0.80;;;2.90;99.90;;;;;;5015467;28;20062;-81